Time;durP1;ratioP1;P1;durP2;ratioP2;P2;SDS_P1;SDS_P2;PMS_P1;PMS_P2;Temp;Humidity;BMP_temperature;BMP_pressure;BME280_temperature;BME280_humidity;BME280_pressure;Samples;Min_cycle;Max_cycle;Signal;HPM_P1;HPM_P2
2022/12/17 13:07:28;;;;;;;41.85;25.85;;;;;;;;;;5069441;28;20079;-73
2022/12/17 13:09:56;;;;;;;41.13;25.05;;;;;;;;;;5061955;28;20137;-74
2022/12/17 13:12:24;;;;;;;38.22;24.50;;;;;;;;;;5069049;28;20040;-75
2022/12/17 13:14:54;;;;;;;35.72;24.17;;;;;;;;;;5072069;28;20044;-75
2022/12/17 13:17:32;;;;;;;39.42;24.45;;;;;;;;;;5067530;28;20131;-75
2022/12/17 13:19:58;;;;;;;37.50;25.85;;;;;;;;;;5066510;28;20117;-76
2022/12/17 13:22:24;;;;;;;37.97;27.02;;;;;;;;;;5063253;28;20132;-77
2022/12/17 13:24:52;;;;;;;41.00;26.15;;;;;;;;;;5065037;28;20367;-74
2022/12/17 13:27:33;;;;;;;40.85;26.15;;;;;;;;;;5071863;28;20044;-75
2022/12/17 13:30:10;;;;;;;37.55;24.80;;;;;;;;;;5059318;28;20044;-75
2022/12/17 13:33:00;;;;;;;43.22;27.38;;;;;;;;;;5070942;28;20084;-74
2022/12/17 13:35:29;;;;;;;40.25;26.00;;;;;;;;;;5059691;28;20061;-75
2022/12/17 13:38:03;;;;;;;41.72;27.58;;;;;;;;;;5057480;28;20052;-75
2022/12/17 13:40:39;;;;;;;41.50;27.73;;;;;;;;;;5060968;28;20040;-75
2022/12/17 13:43:13;;;;;;;42.92;27.55;;;;;;;;;;5065805;28;20137;-75
2022/12/17 13:45:39;;;;;;;39.10;27.30;;;;;;;;;;5066843;28;20523;-73
2022/12/17 13:48:05;;;;;;;43.03;27.42;;;;;;;;;;5069036;28;20182;-73
2022/12/17 13:50:31;;;;;;;41.00;27.63;;;;;;;;;;5065092;28;20254;-72
2022/12/17 13:53:07;;;;;;;44.00;27.88;;;;;;;;;;5060491;28;20776;-74
2022/12/17 13:55:33;;;;;;;42.10;26.98;;;;;;;;;;5068856;28;20041;-73
2022/12/17 13:57:59;;;;;;;43.67;26.48;;;;;;;;;;5064282;28;20047;-74
2022/12/17 14:00:27;;;;;;;43.03;26.83;;;;;;;;;;5059816;28;20048;-74
2022/12/17 14:03:00;;;;;;;42.00;26.23;;;;;;;;;;5069296;28;20522;-75
2022/12/17 14:05:28;;;;;;;41.88;26.60;;;;;;;;;;5062144;28;20412;-74
2022/12/17 14:07:57;;;;;;;41.95;26.42;;;;;;;;;;5083342;28;20124;-75
2022/12/17 14:10:23;;;;;;;41.05;25.77;;;;;;;;;;5066053;28;20094;-76
2022/12/17 14:12:49;;;;;;;42.85;26.25;;;;;;;;;;5063571;28;20048;-73
2022/12/17 14:15:23;;;;;;;43.45;27.85;;;;;;;;;;5063751;28;20496;-75
2022/12/17 14:17:49;;;;;;;43.65;29.80;;;;;;;;;;5071103;28;20109;-75
2022/12/17 14:20:17;;;;;;;40.22;25.48;;;;;;;;;;5059372;28;20139;-72
2022/12/17 14:22:46;;;;;;;44.25;29.05;;;;;;;;;;5062165;28;20044;-72
2022/12/17 14:25:16;;;;;;;44.20;28.83;;;;;;;;;;5059732;28;20511;-73
2022/12/17 14:27:51;;;;;;;44.97;28.17;;;;;;;;;;5063122;28;20041;-72
2022/12/17 14:30:23;;;;;;;46.00;28.95;;;;;;;;;;5064646;28;20040;-73
2022/12/17 14:32:49;;;;;;;45.03;29.83;;;;;;;;;;5065579;28;20044;-78
2022/12/17 14:35:23;;;;;;;42.20;26.13;;;;;;;;;;5059493;28;21189;-73
2022/12/17 14:37:49;;;;;;;44.33;27.42;;;;;;;;;;5065158;28;20127;-74
2022/12/17 14:40:15;;;;;;;48.20;28.02;;;;;;;;;;5061340;28;20125;-74
2022/12/17 14:42:41;;;;;;;45.35;27.92;;;;;;;;;;5054520;28;20051;-74
2022/12/17 14:45:27;;;;;;;50.47;29.02;;;;;;;;;;5065841;28;20048;-74
2022/12/17 14:47:53;;;;;;;41.25;25.98;;;;;;;;;;5068506;28;20133;-74
2022/12/17 14:50:19;;;;;;;43.90;26.80;;;;;;;;;;5065075;28;20508;-73
2022/12/17 14:52:47;;;;;;;52.45;30.67;;;;;;;;;;5067752;28;20049;-74
2022/12/17 14:55:22;;;;;;;49.25;28.95;;;;;;;;;;5063985;28;20052;-73
2022/12/17 14:57:49;;;;;;;51.70;30.48;;;;;;;;;;5065816;28;20212;-73
2022/12/17 15:00:15;;;;;;;44.35;27.05;;;;;;;;;;5055818;28;20143;-73
2022/12/17 15:02:42;;;;;;;49.65;30.35;;;;;;;;;;5060123;28;20055;-73
2022/12/17 15:05:12;;;;;;;49.70;30.33;;;;;;;;;;5062148;28;20503;-73
2022/12/17 15:07:38;;;;;;;52.40;29.00;;;;;;;;;;5068047;28;20045;-73
2022/12/17 15:10:17;;;;;;;50.38;29.92;;;;;;;;;;5066171;28;20392;-73
2022/12/17 15:12:43;;;;;;;51.22;30.67;;;;;;;;;;5062490;28;20480;-73
2022/12/17 15:15:13;;;;;;;47.22;26.50;;;;;;;;;;5061666;28;20048;-73
2022/12/17 15:17:40;;;;;;;49.17;27.83;;;;;;;;;;5058765;28;20040;-73
2022/12/17 15:20:08;;;;;;;50.10;28.85;;;;;;;;;;5064511;28;20074;-73
2022/12/17 15:22:35;;;;;;;50.60;28.58;;;;;;;;;;5065355;28;20472;-73
2022/12/17 15:25:01;;;;;;;54.20;29.15;;;;;;;;;;5066043;28;20051;-73
2022/12/17 15:27:27;;;;;;;50.60;28.90;;;;;;;;;;5067816;28;20048;-73
2022/12/17 15:29:53;;;;;;;54.38;29.65;;;;;;;;;;5067348;28;20047;-73
2022/12/17 15:32:20;;;;;;;53.40;29.50;;;;;;;;;;5069893;28;20039;-73
2022/12/17 15:34:46;;;;;;;50.70;29.17;;;;;;;;;;5073014;28;20132;-73
2022/12/17 15:37:13;;;;;;;52.78;29.92;;;;;;;;;;5070398;28;20060;-73
2022/12/17 15:39:39;;;;;;;52.53;29.25;;;;;;;;;;5068744;28;20462;-73
2022/12/17 15:44:50;;;;;;;53.45;29.75;;;;;;;;;;5068660;28;20492;-73
2022/12/17 15:47:16;;;;;;;56.15;32.42;;;;;;;;;;5069904;28;20049;-73
2022/12/17 15:49:43;;;;;;;56.60;29.50;;;;;;;;;;5066319;28;20036;-73
2022/12/17 15:52:09;;;;;;;51.05;29.15;;;;;;;;;;5061751;28;20474;-74
2022/12/17 15:54:35;;;;;;;57.80;31.92;;;;;;;;;;5063075;28;20519;-74
2022/12/17 15:57:01;;;;;;;53.47;29.58;;;;;;;;;;5070554;28;20040;-74
2022/12/17 15:59:28;;;;;;;56.10;28.95;;;;;;;;;;5072936;28;20051;-74
2022/12/17 16:01:54;;;;;;;51.42;28.27;;;;;;;;;;5071586;28;20084;-73
2022/12/17 16:04:20;;;;;;;57.22;29.27;;;;;;;;;;5070379;28;20040;-74
2022/12/17 16:06:46;;;;;;;57.45;30.02;;;;;;;;;;5058476;28;20045;-74
2022/12/17 16:09:12;;;;;;;50.95;28.45;;;;;;;;;;5086067;28;20828;-74
2022/12/17 16:11:40;;;;;;;55.60;29.42;;;;;;;;;;5064941;28;20495;-74
2022/12/17 16:14:06;;;;;;;52.95;27.95;;;;;;;;;;5065465;28;20549;-74
2022/12/17 16:16:35;;;;;;;52.83;29.27;;;;;;;;;;5063871;28;20128;-74
2022/12/17 16:19:02;;;;;;;57.00;29.65;;;;;;;;;;5066975;28;20388;-73
2022/12/17 16:21:28;;;;;;;62.20;30.92;;;;;;;;;;5067841;28;20110;-74
2022/12/17 16:23:54;;;;;;;57.65;30.23;;;;;;;;;;5067942;28;20078;-75
2022/12/17 16:26:20;;;;;;;59.50;31.27;;;;;;;;;;5066181;28;20085;-74
2022/12/17 16:28:46;;;;;;;59.90;32.15;;;;;;;;;;5072257;28;20050;-75
2022/12/17 16:31:13;;;;;;;58.45;30.85;;;;;;;;;;5065491;28;20444;-78
2022/12/17 16:33:40;;;;;;;53.33;29.63;;;;;;;;;;5064177;28;20047;-76
2022/12/17 16:36:07;;;;;;;54.92;30.23;;;;;;;;;;5058042;28;20053;-75
2022/12/17 16:38:33;;;;;;;51.47;28.65;;;;;;;;;;5064685;28;20098;-76
2022/12/17 16:41:00;;;;;;;55.53;30.65;;;;;;;;;;5067068;28;20036;-75
2022/12/17 16:43:27;;;;;;;62.30;31.48;;;;;;;;;;5070185;28;20500;-76
2022/12/17 16:45:53;;;;;;;59.38;33.47;;;;;;;;;;5068478;28;20040;-76
2022/12/17 16:48:21;;;;;;;54.15;30.35;;;;;;;;;;5071906;28;20519;-77
2022/12/17 16:50:53;;;;;;;61.38;31.88;;;;;;;;;;5072958;28;21487;-74
2022/12/17 16:53:19;;;;;;;60.90;31.60;;;;;;;;;;5055518;28;20049;-77
2022/12/17 16:55:46;;;;;;;53.60;32.03;;;;;;;;;;5057364;28;20049;-76
2022/12/17 16:58:12;;;;;;;61.30;31.73;;;;;;;;;;5051765;28;20045;-74
2022/12/17 17:00:38;;;;;;;58.00;31.02;;;;;;;;;;5085914;28;20385;-72
2022/12/17 17:03:05;;;;;;;64.93;33.45;;;;;;;;;;5069807;28;20660;-73
2022/12/17 17:05:32;;;;;;;62.55;31.92;;;;;;;;;;5063396;28;20045;-74
2022/12/17 17:07:58;;;;;;;61.03;31.77;;;;;;;;;;5061994;28;20041;-72
2022/12/17 17:10:24;;;;;;;60.67;32.55;;;;;;;;;;5058464;28;20037;-72
2022/12/17 17:12:51;;;;;;;64.50;32.38;;;;;;;;;;5069820;28;20500;-72
2022/12/17 17:15:17;;;;;;;67.00;35.47;;;;;;;;;;5066891;28;20044;-72
2022/12/17 17:17:43;;;;;;;62.63;31.98;;;;;;;;;;5064011;28;20467;-71
2022/12/17 17:20:10;;;;;;;62.17;32.58;;;;;;;;;;5065721;28;20048;-72
2022/12/17 17:22:35;;;;;;;60.63;33.85;;;;;;;;;;5058744;28;20041;-72
2022/12/17 17:25:02;;;;;;;66.72;33.33;;;;;;;;;;5067856;28;20043;-72
2022/12/17 17:27:28;;;;;;;59.95;32.25;;;;;;;;;;5064446;28;20408;-72
2022/12/17 17:29:55;;;;;;;58.90;33.05;;;;;;;;;;5066339;28;20047;-72
2022/12/17 17:32:21;;;;;;;63.85;33.67;;;;;;;;;;5063546;28;20044;-73
2022/12/17 17:34:47;;;;;;;68.63;35.55;;;;;;;;;;5070616;28;20045;-73
2022/12/17 17:37:14;;;;;;;58.10;31.85;;;;;;;;;;5062585;28;20118;-73
2022/12/17 17:39:40;;;;;;;58.70;31.45;;;;;;;;;;5062868;28;20425;-72
2022/12/17 17:42:06;;;;;;;63.30;32.85;;;;;;;;;;5057996;28;20500;-72
2022/12/17 17:44:32;;;;;;;62.50;33.17;;;;;;;;;;5055813;28;20074;-73
2022/12/17 17:46:58;;;;;;;61.78;31.13;;;;;;;;;;5058824;28;20052;-72
2022/12/17 17:49:24;;;;;;;67.53;33.22;;;;;;;;;;5052690;28;20156;-71
2022/12/17 17:51:50;;;;;;;66.93;32.72;;;;;;;;;;5067763;28;20044;-72
2022/12/17 17:54:16;;;;;;;52.78;28.40;;;;;;;;;;5064513;28;20131;-72
2022/12/17 17:56:43;;;;;;;64.35;31.95;;;;;;;;;;5062536;28;20048;-74
2022/12/17 17:59:14;;;;;;;66.25;33.25;;;;;;;;;;5065629;28;20404;-74
2022/12/17 18:01:44;;;;;;;62.10;32.20;;;;;;;;;;5065402;28;20052;-72
2022/12/17 18:04:14;;;;;;;68.22;31.95;;;;;;;;;;5062383;28;20036;-74
2022/12/17 18:06:41;;;;;;;61.67;32.13;;;;;;;;;;5063501;28;20054;-71
2022/12/17 18:09:07;;;;;;;57.45;31.25;;;;;;;;;;5067230;28;20484;-72
2022/12/17 18:11:33;;;;;;;56.75;28.73;;;;;;;;;;5062391;28;20051;-71
2022/12/17 18:14:00;;;;;;;58.08;31.50;;;;;;;;;;5064550;28;20040;-71
2022/12/17 18:16:37;;;;;;;63.58;31.02;;;;;;;;;;5064717;28;20476;-71
2022/12/17 18:19:23;;;;;;;56.80;30.33;;;;;;;;;;5065348;28;20051;-72
2022/12/17 18:21:49;;;;;;;55.63;28.50;;;;;;;;;;5061162;28;20057;-71
2022/12/17 18:24:22;;;;;;;59.90;30.38;;;;;;;;;;5065236;28;20041;-71
2022/12/17 18:26:49;;;;;;;60.65;33.30;;;;;;;;;;5068529;28;20535;-71
2022/12/17 18:29:17;;;;;;;55.15;28.65;;;;;;;;;;5068870;28;20048;-71
2022/12/17 18:31:44;;;;;;;56.80;30.35;;;;;;;;;;5063208;28;20492;-71
2022/12/17 18:34:12;;;;;;;59.28;31.55;;;;;;;;;;5063388;28;20076;-73
2022/12/17 18:36:39;;;;;;;63.67;31.80;;;;;;;;;;5064771;28;20479;-72
2022/12/17 18:39:11;;;;;;;61.58;31.98;;;;;;;;;;5068959;28;20040;-73
2022/12/17 18:44:23;;;;;;;65.90;32.28;;;;;;;;;;5052851;28;20084;-73
2022/12/17 18:46:49;;;;;;;56.42;29.63;;;;;;;;;;5059129;28;20048;-73
2022/12/17 18:49:16;;;;;;;62.25;30.83;;;;;;;;;;5059445;28;20044;-74
2022/12/17 18:51:43;;;;;;;62.22;31.05;;;;;;;;;;5057635;28;20055;-73
2022/12/17 18:54:11;;;;;;;59.15;29.67;;;;;;;;;;5065523;28;20043;-74
2022/12/17 18:56:37;;;;;;;57.70;29.75;;;;;;;;;;5062812;28;20064;-75
2022/12/17 18:59:04;;;;;;;60.08;31.60;;;;;;;;;;5066486;28;20102;-75
2022/12/17 19:01:31;;;;;;;59.97;29.95;;;;;;;;;;5061713;28;20052;-75
2022/12/17 19:04:01;;;;;;;59.20;30.23;;;;;;;;;;5062862;28;20120;-75
2022/12/17 19:06:27;;;;;;;61.70;31.45;;;;;;;;;;5072789;28;20133;-74
2022/12/17 19:08:53;;;;;;;61.05;30.83;;;;;;;;;;5066923;28;20052;-75
2022/12/17 19:11:20;;;;;;;66.25;31.35;;;;;;;;;;5071734;28;20045;-75
2022/12/17 19:13:47;;;;;;;60.30;30.88;;;;;;;;;;5068180;28;20619;-75
2022/12/17 19:16:15;;;;;;;64.38;31.02;;;;;;;;;;5067656;28;20404;-75
2022/12/17 19:18:41;;;;;;;60.85;32.42;;;;;;;;;;5069402;28;20392;-75
2022/12/17 19:21:08;;;;;;;66.10;33.15;;;;;;;;;;5071190;28;20131;-75
2022/12/17 19:23:34;;;;;;;61.05;32.35;;;;;;;;;;5070703;28;20503;-75
2022/12/17 19:26:07;;;;;;;56.15;29.85;;;;;;;;;;5072325;28;20044;-75
2022/12/17 19:28:33;;;;;;;64.75;33.25;;;;;;;;;;5067127;28;20093;-75
2022/12/17 19:30:59;;;;;;;67.10;31.92;;;;;;;;;;5071561;28;20166;-75
2022/12/17 19:33:26;;;;;;;58.33;30.42;;;;;;;;;;5069649;28;20049;-75
2022/12/17 19:35:58;;;;;;;61.15;31.95;;;;;;;;;;5069197;28;20617;-75
2022/12/17 19:38:24;;;;;;;66.15;31.85;;;;;;;;;;5070142;28;20415;-75
2022/12/17 19:40:51;;;;;;;61.78;31.77;;;;;;;;;;5071046;28;20484;-75
2022/12/17 19:43:17;;;;;;;64.47;33.45;;;;;;;;;;5070486;28;20045;-76
2022/12/17 19:45:43;;;;;;;65.32;33.33;;;;;;;;;;5061241;28;20055;-75
2022/12/17 19:48:13;;;;;;;67.07;33.10;;;;;;;;;;5069411;28;20041;-75
2022/12/17 19:50:39;;;;;;;66.35;31.98;;;;;;;;;;5070179;28;20465;-75
2022/12/17 19:53:05;;;;;;;57.35;31.63;;;;;;;;;;5066201;28;20036;-75
2022/12/17 19:55:31;;;;;;;62.08;32.28;;;;;;;;;;5071231;28;20048;-75
2022/12/17 19:57:57;;;;;;;67.25;33.38;;;;;;;;;;5070720;28;20082;-75
2022/12/17 20:00:23;;;;;;;64.63;33.30;;;;;;;;;;5067064;28;20041;-75
2022/12/17 20:02:49;;;;;;;62.38;31.77;;;;;;;;;;5064111;28;20041;-75
2022/12/17 20:05:15;;;;;;;66.03;34.05;;;;;;;;;;5070395;28;20490;-75
2022/12/17 20:07:44;;;;;;;68.80;32.25;;;;;;;;;;5070282;28;20032;-75
2022/12/17 20:10:10;;;;;;;69.35;34.17;;;;;;;;;;5071357;28;20051;-75
2022/12/17 20:12:36;;;;;;;70.25;31.58;;;;;;;;;;5068487;28;20049;-75
2022/12/17 20:15:02;;;;;;;62.85;30.42;;;;;;;;;;5067935;28;20102;-75
2022/12/17 20:17:28;;;;;;;57.85;29.13;;;;;;;;;;5066754;28;20543;-75
2022/12/17 20:19:57;;;;;;;68.90;29.65;;;;;;;;;;5070267;28;20044;-75
2022/12/17 20:22:23;;;;;;;64.65;32.22;;;;;;;;;;5068132;28;20052;-75
2022/12/17 20:24:49;;;;;;;65.07;30.60;;;;;;;;;;5065362;28;20040;-75
2022/12/17 20:27:15;;;;;;;65.88;32.03;;;;;;;;;;5069764;28;20419;-75
2022/12/17 20:29:41;;;;;;;66.70;31.55;;;;;;;;;;5071187;28;20036;-75
2022/12/17 20:32:07;;;;;;;63.22;31.70;;;;;;;;;;5068205;28;20480;-75
2022/12/17 20:34:33;;;;;;;65.50;32.38;;;;;;;;;;5068943;28;20044;-75
2022/12/17 20:36:59;;;;;;;58.10;30.30;;;;;;;;;;5069463;28;20040;-75
2022/12/17 20:39:25;;;;;;;62.28;31.05;;;;;;;;;;5068796;28;20281;-75
2022/12/17 20:41:51;;;;;;;63.05;31.55;;;;;;;;;;5068026;28;20489;-75
2022/12/17 20:44:17;;;;;;;62.40;30.35;;;;;;;;;;5067175;28;20123;-75
2022/12/17 20:46:43;;;;;;;70.93;30.40;;;;;;;;;;5068750;28;20052;-75
2022/12/17 20:49:13;;;;;;;67.45;30.63;;;;;;;;;;5068360;28;20048;-75
2022/12/17 20:51:39;;;;;;;70.47;30.60;;;;;;;;;;5069660;28;20121;-75
2022/12/17 20:54:07;;;;;;;67.05;31.63;;;;;;;;;;5067281;28;20037;-75
2022/12/17 20:56:34;;;;;;;67.20;32.92;;;;;;;;;;5070131;28;20044;-75
2022/12/17 20:59:01;;;;;;;69.88;32.65;;;;;;;;;;5062076;28;20048;-75
2022/12/17 21:01:28;;;;;;;62.83;30.88;;;;;;;;;;5068278;28;20041;-75
2022/12/17 21:03:55;;;;;;;61.97;30.80;;;;;;;;;;5075548;28;20043;-75
2022/12/17 21:06:41;;;;;;;64.50;31.40;;;;;;;;;;5068786;28;20049;-75
2022/12/17 21:09:07;;;;;;;67.88;31.92;;;;;;;;;;5067003;28;20041;-75
2022/12/17 21:11:35;;;;;;;60.53;29.40;;;;;;;;;;5067882;28;20040;-75
2022/12/17 21:14:19;;;;;;;63.45;29.55;;;;;;;;;;5070089;28;20048;-76
2022/12/17 21:16:45;;;;;;;62.33;29.42;;;;;;;;;;5063111;28;20093;-76
2022/12/17 21:19:15;;;;;;;68.93;30.60;;;;;;;;;;5069132;28;20041;-75
2022/12/17 21:21:41;;;;;;;62.00;31.50;;;;;;;;;;5067460;28;20059;-76
2022/12/17 21:24:08;;;;;;;61.45;30.48;;;;;;;;;;5066959;28;20499;-75
2022/12/17 21:26:35;;;;;;;68.60;30.73;;;;;;;;;;5067678;28;20052;-76
2022/12/17 21:29:02;;;;;;;69.57;31.77;;;;;;;;;;5069281;28;20404;-75
2022/12/17 21:31:30;;;;;;;59.58;28.48;;;;;;;;;;5065165;28;20052;-75
2022/12/17 21:33:57;;;;;;;60.55;30.10;;;;;;;;;;5067359;28;20417;-75
2022/12/17 21:36:23;;;;;;;61.70;30.05;;;;;;;;;;5068491;28;20053;-75
2022/12/17 21:38:50;;;;;;;69.82;31.52;;;;;;;;;;5071045;28;20044;-75
2022/12/17 21:41:23;;;;;;;66.05;32.20;;;;;;;;;;5065698;28;20110;-75
2022/12/17 21:43:57;;;;;;;63.10;30.63;;;;;;;;;;5059468;28;20134;-75
2022/12/17 21:46:24;;;;;;;66.35;32.17;;;;;;;;;;5066802;28;20590;-75
2022/12/17 21:48:52;;;;;;;60.80;30.58;;;;;;;;;;5078500;28;20056;-75
2022/12/17 21:51:18;;;;;;;59.65;30.30;;;;;;;;;;5067135;28;20075;-73
2022/12/17 21:53:44;;;;;;;67.43;31.65;;;;;;;;;;5068198;28;20428;-75
2022/12/17 21:56:12;;;;;;;69.07;32.55;;;;;;;;;;5068245;28;20063;-76
2022/12/17 21:58:38;;;;;;;63.15;32.33;;;;;;;;;;5068403;28;20052;-78
2022/12/17 22:01:09;;;;;;;64.75;32.10;;;;;;;;;;5067379;28;20044;-78
2022/12/17 22:03:35;;;;;;;66.93;32.28;;;;;;;;;;5067300;28;20448;-75
2022/12/17 22:06:05;;;;;;;64.15;31.10;;;;;;;;;;5066179;28;20067;-75
2022/12/17 22:08:31;;;;;;;67.00;32.28;;;;;;;;;;5065430;28;20387;-75
2022/12/17 22:10:57;;;;;;;61.72;31.33;;;;;;;;;;5067427;28;20048;-76
2022/12/17 22:16:08;;;;;;;67.47;32.80;;;;;;;;;;5060380;28;20049;-75
2022/12/17 22:18:34;;;;;;;62.40;30.33;;;;;;;;;;5065340;28;20048;-75
2022/12/17 22:21:00;;;;;;;63.28;31.25;;;;;;;;;;5069318;28;20131;-75
2022/12/17 22:23:32;;;;;;;63.13;29.42;;;;;;;;;;5067038;28;20056;-75
2022/12/17 22:25:58;;;;;;;64.18;29.42;;;;;;;;;;5061691;28;20434;-75
2022/12/17 22:28:24;;;;;;;62.78;30.63;;;;;;;;;;5063555;28;20048;-75
2022/12/17 22:33:48;;;;;;;63.25;30.33;;;;;;;;;;5030088;28;20196;-75
2022/12/17 22:36:14;;;;;;;68.20;32.28;;;;;;;;;;5067779;28;20504;-75
2022/12/17 22:38:40;;;;;;;60.70;30.33;;;;;;;;;;5067178;28;20052;-75
2022/12/17 22:41:06;;;;;;;63.97;31.60;;;;;;;;;;5063200;28;20076;-75
2022/12/17 22:43:33;;;;;;;63.95;31.48;;;;;;;;;;5061213;28;20029;-75
2022/12/17 22:46:00;;;;;;;64.50;29.75;;;;;;;;;;5065258;28;20532;-75
2022/12/17 22:48:26;;;;;;;62.90;29.58;;;;;;;;;;5067153;28;20140;-75
2022/12/17 22:50:52;;;;;;;67.90;31.08;;;;;;;;;;5064509;28;20059;-75
2022/12/17 22:53:19;;;;;;;64.50;31.63;;;;;;;;;;5064921;28;20063;-75
2022/12/17 22:55:45;;;;;;;66.88;31.80;;;;;;;;;;5060546;28;20156;-75
2022/12/17 22:58:11;;;;;;;64.57;32.70;;;;;;;;;;5066434;28;20398;-75
2022/12/17 23:00:37;;;;;;;72.53;31.88;;;;;;;;;;5062386;28;20067;-75
2022/12/17 23:03:04;;;;;;;56.38;27.73;;;;;;;;;;5068800;28;20045;-75
2022/12/17 23:05:31;;;;;;;67.28;31.33;;;;;;;;;;5066949;28;20120;-75
2022/12/17 23:07:57;;;;;;;69.68;31.75;;;;;;;;;;5067041;28;20511;-75
2022/12/17 23:10:24;;;;;;;65.38;31.10;;;;;;;;;;5059458;28;20492;-76
2022/12/17 23:12:50;;;;;;;64.50;29.27;;;;;;;;;;5065115;28;20733;-73
2022/12/17 23:15:17;;;;;;;66.40;30.63;;;;;;;;;;5064025;28;20094;-71
2022/12/17 23:17:43;;;;;;;67.70;32.35;;;;;;;;;;5063086;28;20055;-71
2022/12/17 23:20:10;;;;;;;67.72;31.52;;;;;;;;;;5069677;28;20450;-72
2022/12/17 23:22:36;;;;;;;71.03;31.23;;;;;;;;;;5063897;28;20040;-72
2022/12/17 23:25:02;;;;;;;63.90;30.17;;;;;;;;;;5066795;28;20166;-72
2022/12/17 23:27:28;;;;;;;70.18;34.20;;;;;;;;;;5067110;28;20048;-70
2022/12/17 23:29:54;;;;;;;67.10;31.65;;;;;;;;;;5064353;28;20045;-71
2022/12/17 23:32:20;;;;;;;68.10;33.75;;;;;;;;;;5061697;28;20052;-71
2022/12/17 23:34:46;;;;;;;66.57;32.08;;;;;;;;;;5066466;28;20533;-72
2022/12/17 23:37:12;;;;;;;64.88;31.83;;;;;;;;;;5068985;28;20060;-69
2022/12/17 23:39:38;;;;;;;70.43;34.00;;;;;;;;;;5065823;28;20044;-74
2022/12/17 23:42:04;;;;;;;69.55;33.45;;;;;;;;;;5065512;28;20044;-73
2022/12/17 23:44:30;;;;;;;67.50;34.15;;;;;;;;;;5066364;28;20045;-74
2022/12/17 23:46:56;;;;;;;72.13;34.05;;;;;;;;;;5066112;28;20071;-74
2022/12/17 23:49:22;;;;;;;64.63;30.75;;;;;;;;;;5059873;28;20044;-73
2022/12/17 23:51:48;;;;;;;66.78;33.47;;;;;;;;;;5066543;28;20041;-74
2022/12/17 23:54:14;;;;;;;71.47;35.03;;;;;;;;;;5071508;28;20059;-73
2022/12/17 23:56:41;;;;;;;67.85;32.50;;;;;;;;;;5068224;28;20136;-73
2022/12/17 23:59:07;;;;;;;63.33;31.05;;;;;;;;;;5065237;28;20141;-72
